KBBD

Curtis Field Airport

Brady, Texas, USA
METAR KBBD 161755Z AUTO 20012KT 10SM FEW017 15/10 A3021 RMK AO2
Observed Flight Rules
Jan-16 @ 17:55 UTC (32 minutes ago) Visual Flight Rules
Wind Visibility Clouds
200° at 12 knots 10 miles
  • Few at 1,700' AGL
Temperatures Readings
Current 15°C / 59°F
Dewpoint 10°C / 50°F
Humidity 72%
Altimeter 30.21" Hg
Pressure 1023.02 hPa
Elevation 557
METAR KBBD 161755Z AUTO 20012KT 10SM FEW017 15/10 A3021 RMK AO2
Observed Flight Rules
Jan-16 @ 17:55 UTC
(32 minutes ago)
VFR
Wind Visibility
200° at 12 knots 10 miles
Clouds
  • Few at 1,700' AGL
Temperature Dewpoint
15°C / 59°F 10°C / 50°F
Humidity Altimeter Pressure
72% 30.21" Hg 1023.02 hPa